createdAt,value
2023-03-28T00:08:39.810Z,8.00
2023-03-28T00:10:12.052Z,12.40
2023-03-28T00:11:44.673Z,6.32
2023-03-28T00:13:20.186Z,12.18
2023-03-28T00:14:52.319Z,10.43
2023-03-28T00:16:32.904Z,16.93
2023-03-28T00:18:06.070Z,11.00
2023-03-28T00:19:42.326Z,9.88
2023-03-28T00:21:29.768Z,7.80
2023-03-28T00:23:04.392Z,3.20
2023-03-28T00:24:39.642Z,6.70
2023-03-28T00:26:13.554Z,8.88
2023-03-28T00:27:45.787Z,12.95
2023-03-28T00:29:21.409Z,8.18
2023-03-28T00:31:00.202Z,13.73
2023-03-28T00:32:34.853Z,6.60
2023-03-28T00:34:07.429Z,6.20
2023-03-28T00:35:39.678Z,12.90
2023-03-28T00:37:17.587Z,5.18
2023-03-28T00:38:50.413Z,5.28
2023-03-28T00:40:22.542Z,9.38
2023-03-28T00:41:57.859Z,8.20
2023-03-28T00:43:46.929Z,11.38
2023-03-28T00:45:21.808Z,12.00
2023-03-28T00:46:54.254Z,6.22
2023-03-28T00:48:26.997Z,9.73
2023-03-28T00:52:10.794Z,6.68
2023-03-28T00:56:21.959Z,7.57
2023-03-28T00:57:56.889Z,6.18
2023-03-28T00:59:33.300Z,10.05
2023-03-28T01:01:06.427Z,8.40
2023-03-28T01:02:47.335Z,10.85
2023-03-28T01:04:24.878Z,5.65
2023-03-28T01:06:33.908Z,10.75
2023-03-28T01:08:14.410Z,7.38
2023-03-28T01:09:47.555Z,7.60
2023-03-28T01:11:26.963Z,8.52
2023-03-28T01:13:02.516Z,5.95
2023-03-28T01:14:41.227Z,8.32
2023-03-28T01:16:25.223Z,11.05
2023-03-28T01:18:13.513Z,6.28
2023-03-28T01:20:14.124Z,7.05
2023-03-28T01:22:09.427Z,9.53
2023-03-28T01:25:43.421Z,17.98
2023-03-28T01:27:30.161Z,6.55
2023-03-28T01:29:21.090Z,8.15
2023-03-28T01:31:20.769Z,12.30
2023-03-28T01:33:52.918Z,7.13
2023-03-28T01:35:52.866Z,5.13
2023-03-28T01:37:40.342Z,12.23
2023-03-28T01:39:30.321Z,9.95
2023-03-28T01:41:32.972Z,9.15
2023-03-28T01:43:38.235Z,5.97
2023-03-28T01:45:39.813Z,15.38
2023-03-28T01:47:18.447Z,7.03
2023-03-28T01:49:15.212Z,10.75
2023-03-28T01:51:56.141Z,10.40
2023-03-28T01:53:44.134Z,8.27
2023-03-28T01:55:21.767Z,12.35
2023-03-28T01:57:02.300Z,10.93
2023-03-28T01:58:48.935Z,9.15
2023-03-28T02:00:34.424Z,7.65
2023-03-28T02:02:45.605Z,8.27
2023-03-28T02:04:31.594Z,6.10
2023-03-28T02:06:08.732Z,7.95
2023-03-28T02:07:42.333Z,9.07
2023-03-28T02:09:18.273Z,8.05
2023-03-28T02:11:18.914Z,10.25
2023-03-28T02:13:16.805Z,8.82
2023-03-28T02:15:15.111Z,5.40
2023-03-28T02:17:16.952Z,7.85
2023-03-28T02:19:51.485Z,9.48
2023-03-28T02:21:54.820Z,7.03
2023-03-28T02:23:41.939Z,10.40
2023-03-28T02:25:43.814Z,6.22
2023-03-28T02:27:39.831Z,7.82
2023-03-28T02:29:34.952Z,7.88
2023-03-28T02:31:59.165Z,7.25
2023-03-28T02:33:54.074Z,12.05
2023-03-28T02:35:53.907Z,10.77
2023-03-28T02:37:54.656Z,11.27
2023-03-28T02:39:46.171Z,8.48
2023-03-28T02:41:48.940Z,7.35
2023-03-28T02:43:36.943Z,10.70
2023-03-28T02:45:48.445Z,8.50
2023-03-28T02:47:34.527Z,16.25
2023-03-28T02:49:19.127Z,18.33
2023-03-28T02:51:12.220Z,18.13
2023-03-28T02:53:03.730Z,5.05
2023-03-28T02:54:40.214Z,14.82
2023-03-28T02:57:07.187Z,13.77
2023-03-28T03:00:38.035Z,9.55
2023-03-28T03:02:21.390Z,11.90
2023-03-28T03:03:58.218Z,10.15
2023-03-28T03:05:30.838Z,8.63
2023-03-28T03:07:05.696Z,10.07
2023-03-28T03:09:04.776Z,17.05
2023-03-28T03:10:40.002Z,7.68
2023-03-28T03:12:13.390Z,13.77
2023-03-28T03:13:45.851Z,8.55
2023-03-28T03:15:18.321Z,8.88
2023-03-28T03:17:04.012Z,16.30
2023-03-28T03:18:38.554Z,7.80
2023-03-28T03:20:16.621Z,15.02
2023-03-28T03:21:50.411Z,12.48
2023-03-28T03:23:22.792Z,11.35
2023-03-28T03:25:04.867Z,10.80
2023-03-28T03:26:37.638Z,9.75
2023-03-28T03:28:17.933Z,13.75
2023-03-28T03:29:54.476Z,14.50
2023-03-28T03:31:52.049Z,11.55
2023-03-28T03:33:30.594Z,8.25
2023-03-28T03:35:08.347Z,12.73
2023-03-28T03:36:40.882Z,14.20
2023-03-28T03:38:13.551Z,14.95
2023-03-28T03:39:48.215Z,10.32
2023-03-28T03:41:23.194Z,16.77
2023-03-28T03:42:55.350Z,11.88
2023-03-28T03:44:27.622Z,10.82
2023-03-28T03:46:02.245Z,14.13
2023-03-28T03:47:35.070Z,13.25
2023-03-28T03:49:09.466Z,13.93
2023-03-28T03:50:41.735Z,11.93
2023-03-28T03:52:21.643Z,7.65
2023-03-28T03:53:56.730Z,9.43
2023-03-28T03:55:39.900Z,12.25
2023-03-28T03:57:29.498Z,8.85
2023-03-28T03:59:57.570Z,8.30
2023-03-28T04:02:25.568Z,12.57
2023-03-28T04:04:07.681Z,8.80
2023-03-28T04:07:42.561Z,9.52
2023-03-28T04:09:27.573Z,10.02
2023-03-28T04:11:12.479Z,14.93
2023-03-28T04:12:50.371Z,12.35
2023-03-28T04:14:22.757Z,17.58
2023-03-28T04:16:00.261Z,14.25
2023-03-28T04:17:54.115Z,14.38
2023-03-28T04:19:28.311Z,17.27
2023-03-28T04:21:02.631Z,12.65
2023-03-28T04:22:48.860Z,16.60
2023-03-28T04:24:42.158Z,17.50
2023-03-28T04:26:28.730Z,12.30
2023-03-28T04:28:18.529Z,13.80
2023-03-28T04:30:33.413Z,16.02
2023-03-28T04:32:25.008Z,11.23
2023-03-28T04:34:09.973Z,17.85
2023-03-28T04:36:06.626Z,16.00
2023-03-28T04:37:39.442Z,19.35
2023-03-28T04:39:35.951Z,13.05
2023-03-28T04:41:26.730Z,18.20
2023-03-28T04:43:07.916Z,12.70
2023-03-28T04:44:44.040Z,13.90
2023-03-28T04:46:19.965Z,11.43
2023-03-28T04:47:52.304Z,15.38
2023-03-28T04:49:26.888Z,15.93
2023-03-28T04:51:00.801Z,9.85
2023-03-28T04:52:33.032Z,16.13
2023-03-28T04:54:05.302Z,18.77
2023-03-28T04:55:52.736Z,13.73
2023-03-28T04:57:29.707Z,11.60
2023-03-28T04:59:07.129Z,12.30
2023-03-28T05:00:43.247Z,14.07
2023-03-28T05:02:54.771Z,11.57
2023-03-28T05:04:34.078Z,16.42
2023-03-28T05:06:10.229Z,14.75
2023-03-28T05:07:42.701Z,15.90
2023-03-28T05:09:18.085Z,13.68
2023-03-28T05:10:50.805Z,9.95
2023-03-28T05:12:22.934Z,12.50
2023-03-28T05:14:03.527Z,15.95
2023-03-28T05:15:42.854Z,12.90
2023-03-28T05:17:29.478Z,12.77
2023-03-28T05:19:05.101Z,14.38
2023-03-28T05:20:56.162Z,19.08
2023-03-28T05:22:28.461Z,18.85
2023-03-28T05:24:04.995Z,12.93
2023-03-28T05:25:50.490Z,13.35
2023-03-28T05:27:27.890Z,17.50
2023-03-28T05:29:11.604Z,14.68
2023-03-28T05:31:15.636Z,18.40
2023-03-28T05:33:50.470Z,19.70
2023-03-28T05:36:40.813Z,15.43
2023-03-28T05:38:43.876Z,21.98
2023-03-28T09:45:38.107Z,4.88
2023-03-28T09:48:34.957Z,4.25
2023-03-28T10:28:47.883Z,4.65
2023-03-28T10:31:14.756Z,5.05
2023-03-28T10:39:31.717Z,2.38
2023-03-28T10:39:33.847Z,3.38
2023-03-28T11:52:44.090Z,6.10
2023-03-28T11:54:48.108Z,5.65
2023-03-28T11:56:56.875Z,6.65
2023-03-28T11:58:44.748Z,5.65
2023-03-28T12:00:33.732Z,4.60
2023-03-28T12:02:45.947Z,3.92
2023-03-28T12:06:29.800Z,4.10
2023-03-28T12:08:18.504Z,4.32
2023-03-28T12:10:23.733Z,4.07
2023-03-28T12:12:39.764Z,5.45
2023-03-28T12:14:48.892Z,4.18
2023-03-28T12:16:42.064Z,2.72
2023-03-28T12:18:49.735Z,4.18
2023-03-28T12:21:02.162Z,2.53
2023-03-28T12:22:46.083Z,6.15
2023-03-28T12:27:38.447Z,5.78
2023-03-28T12:34:49.706Z,5.68
2023-03-28T12:37:17.085Z,4.53
2023-03-28T12:39:05.233Z,6.15
2023-03-28T12:40:48.053Z,3.17
2023-03-28T12:42:31.555Z,4.47
2023-03-28T12:44:11.733Z,2.35
2023-03-28T12:45:58.960Z,6.15
2023-03-28T12:47:51.793Z,5.47
2023-03-28T12:49:38.386Z,5.57
2023-03-28T12:51:26.856Z,3.38
2023-03-28T12:53:14.228Z,2.80
2023-03-28T12:55:01.348Z,2.50
2023-03-28T12:57:12.041Z,6.07
2023-03-28T12:59:00.140Z,2.15
2023-03-28T13:01:05.598Z,3.90
2023-03-28T13:03:05.479Z,3.35
2023-03-28T13:05:01.450Z,3.58
2023-03-28T13:06:58.593Z,3.90
2023-03-28T13:41:44.961Z,2.72
2023-03-28T13:43:24.804Z,5.30
2023-03-28T13:45:22.019Z,4.15
2023-03-28T13:46:55.302Z,4.60
2023-03-28T13:48:45.116Z,5.10
2023-03-28T13:50:31.046Z,3.17
2023-03-28T13:52:21.400Z,3.47
2023-03-28T13:53:55.789Z,4.25
2023-03-28T13:55:28.250Z,5.68
2023-03-28T13:57:19.134Z,5.95
2023-03-28T13:59:06.248Z,7.43
2023-03-28T14:00:41.833Z,4.88
2023-03-28T14:02:21.846Z,2.80
2023-03-28T14:03:55.471Z,7.45
2023-03-28T14:05:31.388Z,6.82
2023-03-28T14:07:05.984Z,4.18
2023-03-28T14:08:46.822Z,3.08
2023-03-28T14:10:36.389Z,5.32
2023-03-28T14:12:16.463Z,3.28
2023-03-28T14:13:49.592Z,3.83
2023-03-28T14:15:30.642Z,4.18
2023-03-28T14:17:10.578Z,3.28
2023-03-28T14:18:54.973Z,3.13
2023-03-28T14:21:04.940Z,5.75
2023-03-28T14:23:01.061Z,3.17
2023-03-28T14:24:36.587Z,4.15
2023-03-28T14:26:16.390Z,4.22
2023-03-28T14:27:56.306Z,4.38
2023-03-28T14:29:32.153Z,3.45
2023-03-28T14:33:07.752Z,3.72
2023-03-28T14:34:47.405Z,6.53
2023-03-28T14:36:21.360Z,3.35
2023-03-28T14:37:58.435Z,5.70
2023-03-28T14:39:33.271Z,5.25
2023-03-28T14:41:21.718Z,4.50
2023-03-28T14:42:56.742Z,4.88
2023-03-28T14:44:35.553Z,5.18
2023-03-28T14:46:11.248Z,3.33
2023-03-28T14:47:45.047Z,3.20
2023-03-28T14:49:23.752Z,6.90
2023-03-28T14:50:56.636Z,4.80
2023-03-28T14:54:02.127Z,5.82
2023-03-28T14:55:35.031Z,2.47
2023-03-28T14:58:42.961Z,4.60
2023-03-28T15:00:17.881Z,4.32
2023-03-28T15:01:50.479Z,3.70
2023-03-28T15:03:25.681Z,5.20
2023-03-28T15:05:01.518Z,6.15
2023-03-28T15:06:34.741Z,5.90
2023-03-28T15:08:10.147Z,4.18
2023-03-28T15:09:42.478Z,5.75
2023-03-28T15:11:18.168Z,3.42
2023-03-28T15:13:23.169Z,4.50
2023-03-28T15:14:55.449Z,5.40
2023-03-28T15:16:29.176Z,2.50
2023-03-28T15:18:07.038Z,5.63
2023-03-28T15:19:41.440Z,3.60
2023-03-28T15:21:16.073Z,5.28
2023-03-28T15:22:52.668Z,4.88
2023-03-28T15:24:28.604Z,4.90
2023-03-28T15:26:09.720Z,3.20
2023-03-28T15:27:44.895Z,5.70
2023-03-28T15:29:22.949Z,4.13
2023-03-28T15:31:04.885Z,4.22
2023-03-28T15:32:37.392Z,4.07
2023-03-28T15:35:09.742Z,5.70
2023-03-28T15:36:19.470Z,4.18
2023-03-28T15:38:04.227Z,4.55
2023-03-28T15:39:49.789Z,3.25
2023-03-28T15:41:29.369Z,3.45
2023-03-28T15:43:03.194Z,6.00
2023-03-28T15:44:39.536Z,7.88
2023-03-28T15:46:15.312Z,3.15
2023-03-28T15:47:49.456Z,6.22
2023-03-28T15:49:21.808Z,3.72
2023-03-28T15:50:54.802Z,8.18
2023-03-28T15:52:26.976Z,5.47
2023-03-28T15:54:14.612Z,5.03
2023-03-28T15:55:52.830Z,4.88
2023-03-28T15:57:32.380Z,4.35
2023-03-28T15:59:52.662Z,6.43
2023-03-28T16:01:43.833Z,4.32
2023-03-28T16:03:26.667Z,4.03
2023-03-28T16:05:10.646Z,6.30
2023-03-28T16:06:46.956Z,3.55
2023-03-28T16:08:34.503Z,5.50
2023-03-28T16:10:07.025Z,8.65
2023-03-28T16:12:00.140Z,9.60
2023-03-28T16:13:55.570Z,5.75
2023-03-28T16:15:56.913Z,6.85
2023-03-28T16:17:49.048Z,4.15
2023-03-28T16:19:35.288Z,7.30
2023-03-28T16:21:12.600Z,7.57
2023-03-28T16:22:45.048Z,8.07
2023-03-28T16:24:19.980Z,2.42
2023-03-28T16:25:53.001Z,6.53
2023-03-28T16:27:25.137Z,10.35
2023-03-28T16:28:57.231Z,6.97
2023-03-28T16:30:32.368Z,7.20
2023-03-28T16:32:07.975Z,9.18
2023-03-28T16:33:40.064Z,4.20
2023-03-28T16:35:22.015Z,6.15
2023-03-28T16:37:22.949Z,5.90
2023-03-28T16:38:55.904Z,6.90
2023-03-28T16:40:36.256Z,6.43
2023-03-28T16:42:13.156Z,7.47
2023-03-28T16:47:20.307Z,5.28
2023-03-28T19:15:08.866Z,8.73
2023-03-28T19:20:48.504Z,4.78
2023-03-28T19:22:28.253Z,6.35
2023-03-28T19:24:09.717Z,3.70
2023-03-28T19:25:50.100Z,3.85
2023-03-28T19:27:22.353Z,2.53
2023-03-28T19:28:54.514Z,3.63
2023-03-28T19:30:33.690Z,3.30
2023-03-28T19:32:08.884Z,3.30
2023-03-28T19:33:41.517Z,7.13
2023-03-28T19:35:26.036Z,3.17
2023-03-28T19:37:22.844Z,4.80
2023-03-28T19:38:59.361Z,5.68
2023-03-28T20:23:17.934Z,6.18
